Time;durP1;ratioP1;P1;durP2;ratioP2;P2;SDS_P1;SDS_P2;PMS_P1;PMS_P2;Temp;Humidity;BMP_temperature;BMP_pressure;BME280_temperature;BME280_humidity;BME280_pressure;Samples;Min_cycle;Max_cycle;Signal;HPM_P1;HPM_P2
2022/06/25 00:00:46;;;;;;;0.50;0.50;;;18.60;89.20;;;18.79;71.46;94456.84;5057341;28;20225;-77
2022/06/25 00:03:13;;;;;;;0.47;0.47;;;18.60;89.40;;;18.82;71.94;94466.97;5054107;28;20207;-77
2022/06/25 00:05:41;;;;;;;0.40;0.40;;;18.60;89.50;;;18.82;72.08;94460.84;5058926;28;20207;-78
2022/06/25 00:08:08;;;;;;;0.50;0.50;;;18.60;89.50;;;18.83;71.30;94465.91;5036008;28;20239;-79
2022/06/25 00:10:35;;;;;;;0.50;0.50;;;18.60;89.70;;;18.81;71.56;94454.75;5035818;28;20314;-78
2022/06/25 00:13:03;;;;;;;0.40;0.40;;;18.70;89.80;;;18.87;71.65;94464.34;5044483;28;20210;-78
2022/06/25 00:15:30;;;;;;;0.40;0.40;;;18.60;89.80;;;18.90;71.62;94470.22;5037121;28;20219;-78
2022/06/25 00:17:58;;;;;;;0.47;0.47;;;18.60;89.90;;;18.91;71.59;94470.00;5057685;28;20196;-78
2022/06/25 00:20:25;;;;;;;0.50;0.50;;;18.60;90.00;;;18.90;71.95;94463.03;5053230;28;20223;-77
2022/06/25 00:22:52;;;;;;;0.50;0.50;;;18.60;90.00;;;18.90;71.82;94465.69;5021054;28;20257;-78
2022/06/25 00:25:19;;;;;;;0.47;0.47;;;18.60;90.00;;;18.92;72.13;94474.25;5036754;28;20211;-78
2022/06/25 00:27:46;;;;;;;0.50;0.50;;;18.70;90.00;;;18.91;71.63;94461.16;5037069;28;20208;-78
2022/06/25 00:30:14;;;;;;;0.50;0.50;;;18.60;90.00;;;18.92;71.74;94460.97;5052753;28;20223;-77
2022/06/25 00:32:41;;;;;;;0.40;0.40;;;18.60;90.00;;;18.91;72.04;94462.00;5085283;28;20203;-78
2022/06/25 00:35:08;;;;;;;0.50;0.50;;;18.60;90.00;;;18.88;72.02;94455.31;5072964;28;20320;-78
2022/06/25 00:37:35;;;;;;;0.50;0.50;;;18.70;90.00;;;18.87;71.72;94450.25;5073150;28;20603;-78
2022/06/25 00:40:03;;;;;;;0.40;0.40;;;18.60;90.30;;;18.87;72.02;94459.03;5067642;28;20258;-77
2022/06/25 00:42:31;;;;;;;0.43;0.43;;;18.60;90.10;;;18.88;71.90;94447.34;5035778;28;20207;-78
2022/06/25 00:44:58;;;;;;;0.50;0.50;;;18.70;90.10;;;18.87;71.96;94452.91;5072440;28;20275;-78
2022/06/25 00:47:26;;;;;;;0.50;0.50;;;18.60;90.10;;;18.85;72.52;94457.69;5072812;28;20190;-78
2022/06/25 00:49:53;;;;;;;0.50;0.50;;;18.70;90.10;;;18.87;72.13;94467.00;5053897;28;20763;-78
2022/06/25 00:52:25;;;;;;;0.40;0.40;;;18.60;90.40;;;18.83;72.38;94463.25;5073236;28;20293;-79
2022/06/25 00:54:55;;;;;;;0.50;0.50;;;18.60;90.10;;;18.85;72.43;94460.34;5039720;28;20317;-78
2022/06/25 00:57:26;;;;;;;0.50;0.50;;;18.60;90.20;;;18.87;72.38;94463.53;5055835;28;20219;-78
2022/06/25 01:00:03;;;;;;;0.40;0.40;;;18.60;90.30;;;18.88;72.17;94459.81;5050815;28;20777;-78
2022/06/25 01:02:31;;;;;;;0.40;0.40;;;18.60;90.30;;;18.88;72.72;94471.28;5071459;28;20558;-78
2022/06/25 01:04:59;;;;;;;0.40;0.40;;;18.60;90.30;;;18.87;72.70;94469.66;5055960;28;20272;-78
2022/06/25 01:07:26;;;;;;;0.50;0.50;;;18.60;90.40;;;18.92;72.28;94471.59;5051761;28;20629;-78
2022/06/25 01:09:53;;;;;;;0.50;0.50;;;18.70;90.40;;;18.93;73.07;94481.16;5069929;28;20222;-78
2022/06/25 01:12:20;;;;;;;0.50;0.50;;;18.70;90.50;;;18.96;73.02;94482.50;5053377;28;20286;-78
2022/06/25 01:15:15;;;;;;;0.43;0.43;;;18.70;90.50;;;18.97;72.39;94495.53;5055729;28;20234;-78
2022/06/25 01:17:49;;;;;;;0.40;0.40;;;18.80;90.70;;;19.02;72.84;94500.88;5072272;28;20240;-78
2022/06/25 01:20:23;;;;;;;0.47;0.47;;;18.80;90.60;;;19.05;72.87;94494.25;5034822;28;20248;-77
2022/06/25 01:22:51;;;;;;;0.40;0.40;;;18.80;90.70;;;19.08;73.03;94495.59;5069020;28;20691;-77
2022/06/25 01:25:19;;;;;;;0.40;0.40;;;18.80;90.70;;;19.12;72.63;94496.72;5025955;28;20246;-78
2022/06/25 01:27:48;;;;;;;0.40;0.40;;;18.80;90.70;;;19.15;72.77;94507.63;5071999;28;20264;-78
2022/06/25 01:30:15;;;;;;;0.50;0.50;;;18.80;90.70;;;19.18;73.08;94516.94;5051576;28;20251;-78
2022/06/25 01:32:43;;;;;;;0.50;0.50;;;18.80;90.80;;;19.19;73.29;94514.03;5043733;28;20605;-78
2022/06/25 01:35:10;;;;;;;0.50;0.50;;;18.80;90.80;;;19.24;73.33;94523.91;5036271;28;20223;-78
2022/06/25 01:37:39;;;;;;;0.57;0.57;;;18.90;90.80;;;19.28;72.64;94526.84;5037010;28;20687;-78
2022/06/25 01:40:07;;;;;;;0.40;0.40;;;19.00;90.80;;;19.29;72.66;94528.47;5063738;28;20600;-77
2022/06/25 01:45:21;;;;;;;0.50;0.50;;;19.00;90.70;;;19.25;73.00;94536.16;5040165;28;20226;-78
2022/06/25 01:47:48;;;;;;;0.40;0.40;;;19.00;90.60;;;19.23;72.83;94540.91;5063437;28;20203;-78
2022/06/25 01:50:16;;;;;;;0.50;0.50;;;19.00;90.60;;;19.20;72.74;94538.78;5051707;28;20223;-78
2022/06/25 01:52:46;;;;;;;0.40;0.40;;;19.00;90.60;;;19.22;72.94;94543.84;5066946;28;20210;-78
2022/06/25 01:55:15;;;;;;;0.50;0.50;;;18.90;90.60;;;19.19;72.92;94543.28;5068582;28;20242;-78
2022/06/25 01:57:43;;;;;;;0.50;0.50;;;19.00;90.60;;;19.16;73.16;94548.28;5068686;28;20605;-77
2022/06/25 02:00:16;;;;;;;0.50;0.50;;;18.90;90.60;;;19.12;72.79;94545.34;5054962;28;20222;-78
2022/06/25 02:02:50;;;;;;;0.40;0.40;;;18.90;90.60;;;19.13;73.28;94546.94;5040279;28;20217;-77
2022/06/25 02:05:56;;;;;;;0.50;0.50;;;18.90;90.70;;;19.15;72.82;94549.34;5042519;28;20310;-78
2022/06/25 02:08:10;;;;;;;0.40;0.40;;;18.80;90.60;;;19.09;73.17;94559.16;5055457;28;20268;-77
2022/06/25 02:10:37;;;;;;;0.50;0.50;;;18.80;90.60;;;19.07;72.75;94547.97;5036916;28;20223;-77
2022/06/25 02:13:05;;;;;;;0.50;0.50;;;18.90;90.60;;;19.10;72.95;94558.06;5035160;28;20650;-78
2022/06/25 02:15:36;;;;;;;0.40;0.40;;;18.80;90.70;;;19.10;73.29;94563.41;5035852;28;20581;-78
2022/06/25 02:18:04;;;;;;;0.50;0.50;;;18.80;90.70;;;19.10;72.86;94559.94;5035349;28;20195;-78
2022/06/25 02:20:31;;;;;;;0.45;0.45;;;18.80;90.70;;;19.08;73.05;94560.22;5050841;28;20711;-78
2022/06/25 02:23:01;;;;;;;0.52;0.52;;;18.80;90.70;;;19.05;73.05;94560.69;5034994;28;20195;-79
2022/06/25 02:25:28;;;;;;;0.50;0.50;;;18.80;91.00;;;19.03;73.02;94557.53;5036134;28;20483;-78
2022/06/25 02:27:58;;;;;;;0.50;0.50;;;18.80;90.70;;;19.00;73.15;94561.47;5034660;28;20213;-77
2022/06/25 02:30:26;;;;;;;0.40;0.40;;;18.80;90.70;;;19.00;73.03;94564.13;5018142;28;20244;-78
2022/06/25 02:32:53;;;;;;;0.50;0.50;;;18.80;90.70;;;19.02;72.80;94562.03;5051158;28;20282;-78
2022/06/25 02:35:42;;;;;;;0.40;0.40;;;18.70;90.70;;;19.00;73.20;94569.44;5017307;28;20235;-77
2022/06/25 02:38:14;;;;;;;0.50;0.50;;;18.70;90.80;;;18.99;73.40;94562.53;5024565;28;20203;-78
2022/06/25 02:40:43;;;;;;;0.50;0.50;;;18.70;90.80;;;18.98;73.10;94566.25;5053109;28;20218;-78
2022/06/25 02:43:10;;;;;;;0.50;0.50;;;18.80;90.80;;;18.97;73.00;94564.63;5055298;28;20537;-77
2022/06/25 02:45:42;;;;;;;0.50;0.50;;;18.70;90.70;;;18.93;72.98;94566.22;5041166;28;20260;-78
2022/06/25 02:48:11;;;;;;;0.57;0.57;;;18.70;90.70;;;18.91;72.83;94568.31;5030221;28;20201;-78
2022/06/25 02:50:40;;;;;;;0.45;0.45;;;18.70;90.70;;;18.88;73.18;94564.28;5053925;28;20301;-78
2022/06/25 02:53:10;;;;;;;0.50;0.50;;;18.70;90.70;;;18.87;72.71;94573.28;5036904;28;20199;-78
2022/06/25 03:01:14;;;;;;;0.50;0.50;;;18.60;90.60;;;18.79;72.71;94563.13;5039484;28;20309;-78
2022/06/25 03:03:42;;;;;;;0.50;0.50;;;18.60;90.70;;;18.77;72.77;94564.44;5069758;28;20791;-78
2022/06/25 03:06:10;;;;;;;0.50;0.50;;;18.60;90.70;;;18.77;72.69;94567.09;5036354;28;20581;-77
2022/06/25 03:08:39;;;;;;;0.50;0.50;;;18.50;90.70;;;18.72;73.28;94567.84;5047391;28;20203;-78
2022/06/25 03:11:07;;;;;;;0.55;0.55;;;18.50;90.70;;;18.72;73.16;94589.09;5037540;28;20769;-78
2022/06/25 03:13:36;;;;;;;0.50;0.50;;;18.50;90.60;;;18.70;72.81;94585.88;5052414;28;20195;-77
2022/06/25 03:16:05;;;;;;;0.43;0.43;;;18.50;90.60;;;18.64;73.10;94590.34;5052339;28;20731;-78
2022/06/25 03:18:37;;;;;;;0.50;0.50;;;18.40;90.60;;;18.61;72.98;94579.41;5064567;28;20245;-78
2022/06/25 03:21:30;;;;;;;0.50;0.50;;;18.40;90.60;;;18.55;73.18;94570.59;5059664;28;20603;-78
2022/06/25 03:24:03;;;;;;;0.50;0.50;;;18.30;90.60;;;18.55;73.29;94584.69;5072804;28;20187;-78
2022/06/25 03:26:31;;;;;;;0.52;0.52;;;18.30;90.60;;;18.54;73.33;94590.22;5052309;28;20220;-78
2022/06/25 03:29:02;;;;;;;0.50;0.50;;;18.30;90.70;;;18.51;73.48;94591.53;5053432;28;20256;-78
2022/06/25 03:31:31;;;;;;;0.50;0.50;;;18.30;90.70;;;18.51;73.03;94590.75;5047559;28;20296;-78
2022/06/25 03:34:02;;;;;;;0.50;0.50;;;18.30;90.70;;;18.49;73.35;94591.00;5062251;28;20649;-78
2022/06/25 03:36:47;;;;;;;0.50;0.50;;;18.30;90.80;;;18.50;73.12;94592.56;5053755;28;20206;-79
2022/06/25 03:39:16;;;;;;;0.50;0.50;;;18.30;90.80;;;18.45;73.13;94591.75;5069822;28;20563;-78
2022/06/25 03:41:44;;;;;;;0.50;0.50;;;18.30;90.70;;;18.40;73.32;94584.50;5053354;28;20231;-78
2022/06/25 03:44:36;;;;;;;0.45;0.45;;;18.30;90.70;;;18.40;73.31;94590.63;5035294;28;20582;-78
2022/06/25 03:47:12;;;;;;;0.50;0.50;;;18.20;90.70;;;18.34;73.41;94588.94;5056824;28;20210;-78
2022/06/25 03:49:40;;;;;;;0.50;0.50;;;18.20;90.60;;;18.33;72.96;94597.97;5054194;28;20696;-78
2022/06/25 03:52:11;;;;;;;0.40;0.40;;;18.10;90.60;;;18.31;73.34;94602.75;5046112;28;20245;-78
2022/06/25 03:54:38;;;;;;;0.40;0.40;;;18.10;90.70;;;18.29;72.94;94599.53;5019178;28;20477;-77
2022/06/25 03:57:05;;;;;;;0.50;0.50;;;18.10;90.70;;;18.28;73.10;94600.56;5052200;28;20199;-78
2022/06/25 03:59:44;;;;;;;0.50;0.50;;;18.00;90.70;;;18.27;73.07;94600.81;5037721;28;20265;-77
2022/06/25 04:02:25;;;;;;;0.43;0.43;;;18.10;90.70;;;18.23;73.26;94605.81;5037374;28;20206;-79
2022/06/25 04:05:12;;;;;;;0.50;0.50;;;18.00;90.70;;;18.21;73.55;94599.94;5037626;28;20297;-80
2022/06/25 04:07:41;;;;;;;0.47;0.47;;;18.00;90.80;;;18.19;73.58;94604.72;5038297;28;20205;-79
2022/06/25 04:10:11;;;;;;;0.55;0.55;;;18.00;90.80;;;18.18;73.82;94608.44;5071950;28;20697;-80
2022/06/25 04:12:39;;;;;;;0.40;0.40;;;18.00;90.80;;;18.16;73.97;94603.38;5055650;28;20199;-80
2022/06/25 04:15:08;;;;;;;0.50;0.50;;;17.90;90.80;;;18.19;73.23;94610.03;5069694;28;20226;-79
2022/06/25 04:17:35;;;;;;;0.50;0.50;;;17.90;90.90;;;18.20;73.64;94609.78;5072735;28;20198;-79
2022/06/25 04:20:06;;;;;;;0.50;0.50;;;17.90;91.00;;;18.21;73.72;94614.03;5073231;28;20222;-79
2022/06/25 04:22:33;;;;;;;0.50;0.50;;;17.90;90.90;;;18.16;73.92;94613.16;5074557;28;20218;-79
2022/06/25 04:25:03;;;;;;;0.50;0.50;;;17.90;90.90;;;18.20;73.53;94612.44;5051169;28;20762;-79
2022/06/25 04:30:17;;;;;;;0.50;0.50;;;18.00;91.00;;;18.22;73.90;94620.97;5053041;28;20215;-80
2022/06/25 04:32:48;;;;;;;0.55;0.55;;;18.00;91.00;;;18.22;74.25;94618.31;5053533;28;20203;-80
2022/06/25 04:35:17;;;;;;;0.50;0.50;;;18.00;91.00;;;18.23;73.77;94627.06;5051565;28;20231;-79
2022/06/25 04:37:46;;;;;;;0.55;0.55;;;18.00;91.00;;;18.27;74.29;94622.06;5036159;28;20187;-80
2022/06/25 04:40:15;;;;;;;0.50;0.50;;;18.00;91.20;;;18.30;74.52;94625.03;5036756;28;20310;-79
2022/06/25 04:42:46;;;;;;;0.50;0.50;;;18.00;91.20;;;18.33;73.90;94616.56;5020391;28;20239;-79
2022/06/25 04:45:14;;;;;;;0.50;0.50;;;18.10;91.20;;;18.33;74.24;94621.06;5035580;28;20214;-79
2022/06/25 04:48:03;;;;;;;0.50;0.50;;;18.10;91.20;;;18.36;73.97;94624.03;5058872;28;20190;-79
2022/06/25 04:50:59;;;;;;;0.50;0.50;;;18.10;91.30;;;18.37;74.24;94622.16;5071838;28;20210;-80
2022/06/25 04:53:29;;;;;;;0.50;0.50;;;18.10;91.20;;;18.39;73.74;94631.53;5020784;28;20298;-80
2022/06/25 04:55:58;;;;;;;0.50;0.50;;;18.10;91.10;;;18.40;73.75;94627.00;5053343;28;20239;-80
2022/06/25 04:58:27;;;;;;;0.50;0.50;;;18.10;91.20;;;18.44;74.52;94628.09;5036703;28;20699;-80
2022/06/25 05:01:15;;;;;;;0.50;0.50;;;18.20;91.20;;;18.42;73.89;94630.22;5052596;28;20219;-80
2022/06/25 05:03:43;;;;;;;0.50;0.50;;;18.20;91.20;;;18.46;74.23;94631.31;5066030;28;20664;-80
2022/06/25 05:06:13;;;;;;;0.47;0.47;;;18.20;91.30;;;18.49;74.26;94633.50;5071104;28;20680;-81
2022/06/25 05:08:41;;;;;;;0.40;0.40;;;18.20;91.30;;;18.51;73.88;94630.56;5037737;28;20271;-79
2022/06/25 05:11:09;;;;;;;0.40;0.40;;;18.30;91.30;;;18.54;74.43;94633.53;5079208;28;20219;-80
2022/06/25 05:13:36;;;;;;;0.70;0.70;;;18.20;91.30;;;18.56;74.37;94635.94;5078852;28;20237;-79
2022/06/25 05:16:03;;;;;;;0.45;0.45;;;18.30;91.40;;;18.61;74.38;94645.81;5071518;28;20253;-79
2022/06/25 05:18:31;;;;;;;0.50;0.50;;;18.30;91.40;;;18.59;74.20;94632.81;5071931;28;20210;-81
2022/06/25 05:20:59;;;;;;;0.50;0.50;;;18.40;91.40;;;18.62;74.07;94634.94;5053016;28;20449;-81
2022/06/25 05:23:26;;;;;;;0.40;0.40;;;18.40;91.40;;;18.63;73.98;94639.22;5037281;28;20202;-78
2022/06/25 05:25:55;;;;;;;0.50;0.50;;;18.40;91.40;;;18.62;74.33;94642.13;5024579;28;20412;-79
2022/06/25 05:28:22;;;;;;;0.50;0.50;;;18.40;91.30;;;18.66;73.87;94645.88;5033842;28;20206;-80
2022/06/25 05:30:49;;;;;;;0.50;0.50;;;18.40;91.30;;;18.68;74.39;94649.09;5035923;28;20657;-79
2022/06/25 05:33:16;;;;;;;0.40;0.40;;;18.40;91.30;;;18.66;74.14;94652.00;5012629;28;20214;-80
2022/06/25 05:35:44;;;;;;;0.50;0.50;;;18.40;91.30;;;18.70;74.29;94655.75;5036351;28;20712;-80
2022/06/25 05:38:12;;;;;;;0.43;0.43;;;18.40;91.30;;;18.70;74.59;94650.44;5032579;28;20656;-79
2022/06/25 05:40:39;;;;;;;0.50;0.50;;;18.50;91.40;;;18.71;74.37;94657.38;5036861;28;20223;-78
2022/06/25 05:43:07;;;;;;;0.50;0.50;;;18.50;91.40;;;18.74;74.68;94661.38;5044170;28;20207;-79
2022/06/25 05:45:34;;;;;;;0.40;0.40;;;18.50;91.40;;;18.75;74.19;94663.00;5043894;28;20231;-80
2022/06/25 05:48:03;;;;;;;0.50;0.50;;;18.50;91.30;;;18.78;74.33;94674.97;5033819;28;20337;-80
2022/06/25 05:50:31;;;;;;;0.50;0.50;;;18.40;91.30;;;18.79;74.14;94660.63;5060846;28;20211;-79
2022/06/25 05:52:59;;;;;;;0.50;0.50;;;18.50;91.30;;;18.78;74.42;94667.00;5070522;28;20300;-79
2022/06/25 05:55:26;;;;;;;0.50;0.50;;;18.50;91.30;;;18.76;74.12;94677.88;5010404;28;20226;-79
2022/06/25 05:57:53;;;;;;;0.40;0.40;;;18.50;91.30;;;18.76;74.09;94674.41;5041511;28;20202;-80
2022/06/25 06:00:21;;;;;;;0.50;0.50;;;18.50;91.30;;;18.77;74.34;94678.66;5038601;28;20227;-79
2022/06/25 06:02:50;;;;;;;0.50;0.50;;;18.50;91.60;;;18.76;74.71;94669.91;5042317;28;20198;-80
2022/06/25 06:05:19;;;;;;;0.40;0.40;;;18.60;91.40;;;18.73;74.40;94668.53;5039023;28;20313;-78
2022/06/25 06:07:47;;;;;;;0.50;0.50;;;18.50;91.50;;;18.81;74.90;94677.94;5013390;28;20215;-79
2022/06/25 06:10:14;;;;;;;0.50;0.50;;;18.60;91.50;;;18.84;74.57;94682.72;5031052;28;20266;-78
2022/06/25 06:12:44;;;;;;;0.50;0.50;;;18.60;91.50;;;18.88;74.85;94691.84;5054175;28;20211;-77
2022/06/25 06:15:12;;;;;;;0.50;0.50;;;18.60;91.60;;;18.91;74.54;94687.03;5039633;28;20230;-77
2022/06/25 06:17:39;;;;;;;0.40;0.40;;;18.60;91.60;;;18.96;74.75;94687.94;5046060;28;20269;-77
2022/06/25 06:20:07;;;;;;;0.40;0.40;;;18.70;91.70;;;19.02;74.73;94692.25;5070628;28;20227;-78
2022/06/25 06:22:35;;;;;;;0.50;0.50;;;18.70;91.70;;;19.08;74.87;94697.63;5033171;28;20203;-78
2022/06/25 06:25:04;;;;;;;0.50;0.50;;;18.70;91.80;;;19.13;74.73;94698.47;5045753;28;20223;-79
2022/06/25 06:27:31;;;;;;;0.50;0.50;;;18.80;91.80;;;19.18;75.00;94700.41;5041324;28;20583;-78
2022/06/25 06:29:59;;;;;;;0.40;0.40;;;18.80;91.80;;;19.21;74.88;94707.84;5008006;28;20218;-79
2022/06/25 06:32:26;;;;;;;0.50;0.50;;;18.90;91.80;;;19.24;74.68;94706.53;5039583;28;20300;-78
2022/06/25 06:34:53;;;;;;;0.50;0.50;;;18.90;91.90;;;19.29;74.60;94715.38;5070745;28;20210;-77
2022/06/25 06:37:21;;;;;;;0.63;0.63;;;19.10;91.90;;;19.35;74.90;94713.59;5070902;28;20269;-78
2022/06/25 06:39:48;;;;;;;0.50;0.50;;;19.00;91.90;;;19.40;74.90;94715.50;5070811;28;20214;-78
2022/06/25 06:42:15;;;;;;;0.40;0.40;;;19.00;91.90;;;19.43;75.41;94723.78;5070735;28;20229;-78
2022/06/25 06:44:42;;;;;;;0.40;0.40;;;19.10;91.90;;;19.47;75.49;94718.72;5069969;28;20215;-78
2022/06/25 06:47:09;;;;;;;0.40;0.40;;;19.20;91.90;;;19.51;75.04;94719.84;5071024;28;20199;-79
2022/06/25 06:49:38;;;;;;;0.47;0.47;;;19.30;91.90;;;19.52;74.73;94719.59;5070972;28;20221;-77
2022/06/25 06:52:06;;;;;;;0.40;0.40;;;19.20;91.70;;;19.51;74.86;94715.31;5062316;28;20191;-78
2022/06/25 06:54:34;;;;;;;0.43;0.43;;;19.30;91.80;;;19.57;74.66;94731.34;5079209;28;20728;-78
2022/06/25 06:57:01;;;;;;;0.50;0.50;;;19.30;91.70;;;19.58;74.52;94725.75;5058234;28;20223;-78
2022/06/25 06:59:28;;;;;;;0.40;0.40;;;19.30;91.70;;;19.60;74.53;94720.97;5054184;28;20207;-79
2022/06/25 07:01:56;;;;;;;0.45;0.45;;;19.30;91.70;;;19.62;75.16;94726.84;5039785;28;20551;-78
2022/06/25 07:04:23;;;;;;;0.47;0.47;;;19.40;91.70;;;19.66;74.77;94732.47;5039711;28;20231;-79
2022/06/25 07:06:50;;;;;;;0.50;0.50;;;19.40;91.80;;;19.66;74.81;94727.97;5071599;28;20565;-81
2022/06/25 07:09:18;;;;;;;0.40;0.40;;;19.40;91.80;;;19.74;75.05;94732.00;5038985;28;20201;-79
2022/06/25 07:11:44;;;;;;;0.40;0.40;;;19.40;91.90;;;19.74;75.14;94720.53;5022312;28;20312;-78
2022/06/25 07:14:13;;;;;;;0.40;0.40;;;19.50;91.90;;;19.76;75.16;94721.09;5062346;28;20204;-79
2022/06/25 07:16:41;;;;;;;0.40;0.40;;;19.50;91.90;;;19.86;75.70;94731.06;5058169;28;20234;-78
2022/06/25 07:19:10;;;;;;;0.50;0.50;;;19.50;92.00;;;19.91;75.69;94731.09;5079250;28;20252;-80
2022/06/25 07:21:38;;;;;;;0.50;0.50;;;19.60;92.00;;;19.93;75.33;94731.66;5057625;28;20204;-78
2022/06/25 07:24:05;;;;;;;0.47;0.47;;;19.60;92.00;;;19.96;75.03;94726.63;5051863;28;20200;-79
2022/06/25 07:26:33;;;;;;;0.50;0.50;;;19.70;92.00;;;20.03;75.51;94736.25;5070582;28;20222;-78
2022/06/25 07:29:01;;;;;;;0.40;0.40;;;19.80;92.00;;;20.05;75.38;94726.94;5081501;28;20219;-80
2022/06/25 07:31:28;;;;;;;0.50;0.50;;;19.80;92.00;;;20.08;75.22;94729.09;5063802;28;20222;-81
2022/06/25 07:33:55;;;;;;;0.40;0.40;;;19.80;92.00;;;20.10;75.57;94732.31;5077623;28;20279;-80
2022/06/25 07:36:23;;;;;;;0.40;0.40;;;19.80;92.00;;;20.09;74.83;94733.38;5077589;28;20235;-79
2022/06/25 07:38:50;;;;;;;0.40;0.40;;;19.90;91.90;;;20.09;74.92;94736.03;5061888;28;20733;-78
2022/06/25 07:41:18;;;;;;;0.43;0.43;;;19.90;91.80;;;20.11;75.09;94733.91;5038264;28;20237;-79
2022/06/25 07:43:45;;;;;;;0.50;0.50;;;19.90;91.90;;;20.12;75.01;94735.50;5074445;28;20190;-80
2022/06/25 07:46:12;;;;;;;0.50;0.50;;;19.90;91.90;;;20.12;75.16;94742.69;5072494;28;20280;-78
2022/06/25 07:48:40;;;;;;;0.43;0.43;;;19.90;91.80;;;20.12;75.17;94734.72;5090796;28;20274;-79
2022/06/25 07:53:53;;;;;;;0.50;0.50;;;19.90;91.80;;;20.09;74.95;94743.19;5064810;28;20207;-79
2022/06/25 07:56:20;;;;;;;0.50;0.50;;;19.90;91.80;;;20.10;75.05;94747.47;5073956;28;20226;-80
2022/06/25 07:58:47;;;;;;;0.50;0.50;;;19.90;91.80;;;20.13;75.03;94749.63;5052179;28;20195;-80
2022/06/25 08:01:15;;;;;;;0.40;0.40;;;19.90;91.80;;;20.14;74.92;94749.38;5051821;28;20306;-80
2022/06/25 08:03:42;;;;;;;0.40;0.40;;;19.90;91.90;;;20.12;74.66;94748.81;5071948;28;20209;-80
2022/06/25 08:06:10;;;;;;;0.40;0.40;;;19.90;91.80;;;20.12;75.31;94748.03;5067446;28;20292;-80
2022/06/25 08:08:39;;;;;;;0.50;0.50;;;19.90;91.80;;;20.12;74.98;94748.03;5073522;28;20225;-79
2022/06/25 08:11:06;;;;;;;0.40;0.40;;;19.90;91.80;;;20.12;75.12;94753.34;5069193;28;20716;-80
2022/06/25 08:13:33;;;;;;;0.50;0.50;;;19.90;91.90;;;20.16;75.39;94757.09;5058405;28;20211;-80
2022/06/25 08:16:00;;;;;;;0.43;0.43;;;19.90;91.90;;;20.20;75.35;94762.72;5068377;28;20311;-80
2022/06/25 08:18:28;;;;;;;0.50;0.50;;;20.00;92.00;;;20.26;75.44;94769.69;5073473;28;20241;-81
2022/06/25 08:20:55;;;;;;;0.40;0.40;;;20.00;92.10;;;20.31;75.89;94764.38;5073258;28;20224;-79
2022/06/25 08:23:22;;;;;;;0.45;0.45;;;20.00;92.10;;;20.39;75.88;94761.25;5072762;28;20195;-79
2022/06/25 08:25:49;;;;;;;0.40;0.40;;;20.00;92.20;;;20.47;75.83;94774.09;5072711;28;20563;-79
2022/06/25 08:28:18;;;;;;;0.50;0.50;;;20.10;92.30;;;20.47;75.25;94774.09;5056055;28;20211;-80
2022/06/25 08:30:45;;;;;;;0.40;0.40;;;20.30;92.20;;;20.47;75.40;94770.63;5070433;28;20720;-80
2022/06/25 08:33:14;;;;;;;0.40;0.40;;;20.20;92.00;;;20.50;75.49;94779.97;5069085;28;20215;-79
2022/06/25 08:35:42;;;;;;;0.40;0.40;;;20.20;92.00;;;20.45;75.32;94756.75;5025345;28;20220;-80
2022/06/25 08:38:10;;;;;;;0.40;0.40;;;20.30;92.00;;;20.46;75.20;94772.47;5056555;28;20202;-79
2022/06/25 08:40:38;;;;;;;0.40;0.40;;;20.20;91.90;;;20.53;75.25;94771.44;5046215;28;20223;-80
2022/06/25 08:43:10;;;;;;;0.40;0.40;;;20.30;92.00;;;20.50;75.86;94779.97;5043732;28;20213;-80
2022/06/25 08:45:38;;;;;;;0.40;0.40;;;20.30;92.10;;;20.53;75.39;94774.09;5048317;28;20243;-82
2022/06/25 08:48:21;;;;;;;0.50;0.50;;;20.40;92.00;;;20.55;75.67;94780.00;5068050;28;20209;-81
2022/06/25 08:50:50;;;;;;;0.40;0.40;;;20.50;92.00;;;20.58;75.30;94774.13;5053904;28;20217;-81
2022/06/25 08:53:18;;;;;;;0.32;0.32;;;20.30;92.10;;;20.62;75.85;94780.56;5068923;28;20196;-81
2022/06/25 08:55:46;;;;;;;0.50;0.50;;;20.40;92.20;;;20.69;75.93;94788.31;5069494;28;20249;-82
2022/06/25 08:58:14;;;;;;;0.43;0.43;;;20.40;92.30;;;20.69;76.24;94777.66;5056249;28;20206;-80
2022/06/25 09:00:45;;;;;;;0.40;0.40;;;20.50;92.60;;;20.77;76.17;94787.84;5056146;28;20219;-81
2022/06/25 09:03:12;;;;;;;0.40;0.40;;;20.50;92.50;;;20.77;75.70;94777.97;5055859;28;20233;-81
2022/06/25 09:05:42;;;;;;;0.40;0.40;;;20.60;92.40;;;20.87;75.96;94776.44;5057241;28;20223;-80
2022/06/25 09:08:13;;;;;;;0.47;0.47;;;20.70;92.40;;;20.93;76.38;94786.88;5044288;28;20273;-80
2022/06/25 09:10:51;;;;;;;0.40;0.40;;;20.70;92.40;;;21.00;76.27;94780.50;5052604;28;20292;-80
2022/06/25 09:13:25;;;;;;;0.40;0.40;;;20.70;92.40;;;21.08;75.92;94785.31;5041897;28;20228;-80
2022/06/25 09:15:53;;;;;;;0.35;0.35;;;20.80;92.40;;;21.12;76.03;94791.75;5079675;28;20238;-80
2022/06/25 09:18:20;;;;;;;0.40;0.40;;;20.90;92.40;;;21.15;76.00;94787.75;5070776;28;20202;-80
2022/06/25 09:21:09;;;;;;;0.40;0.40;;;20.90;92.40;;;21.19;75.88;94783.50;5051713;28;20298;-80
2022/06/25 09:23:58;;;;;;;0.40;0.40;;;20.90;92.30;;;21.26;75.77;94792.03;5053931;28;20458;-80
2022/06/25 09:26:26;;;;;;;0.40;0.40;;;21.00;92.50;;;21.28;76.54;94781.94;5048002;28;20219;-81
2022/06/25 09:29:00;;;;;;;0.47;0.47;;;21.00;92.70;;;21.40;76.41;94793.16;5049346;28;20196;-82
2022/06/25 09:31:35;;;;;;;0.40;0.40;;;21.10;92.70;;;21.49;76.57;94780.09;5045672;28;20336;-80
2022/06/25 09:34:06;;;;;;;0.40;0.40;;;21.20;92.60;;;21.59;76.82;94790.03;5059654;28;20217;-82
2022/06/25 09:36:33;;;;;;;0.40;0.40;;;21.20;92.90;;;21.63;76.78;94777.78;5035788;28;20373;-81
2022/06/25 09:39:01;;;;;;;0.40;0.40;;;21.30;93.00;;;21.81;77.06;94779.09;5049569;28;20577;-80
2022/06/25 09:41:49;;;;;;;0.40;0.40;;;21.40;93.00;;;21.92;76.41;94790.59;5036754;28;20578;-81
2022/06/25 09:44:21;;;;;;;0.30;0.30;;;21.50;92.60;;;21.96;75.91;94790.88;5052608;28;20252;-81
2022/06/25 09:46:57;;;;;;;0.50;0.50;;;21.60;92.50;;;21.97;75.18;94787.13;5069597;28;20278;-81
2022/06/25 09:49:26;;;;;;;0.40;0.40;;;21.60;92.20;;;21.98;75.51;94783.41;5051159;28;20609;-79
2022/06/25 09:52:01;;;;;;;0.30;0.30;;;21.70;92.30;;;21.94;75.31;94785.00;5034250;28;20674;-80
2022/06/25 09:54:29;;;;;;;0.40;0.40;;;21.70;92.10;;;21.94;75.21;94791.13;5042262;28;20213;-80
2022/06/25 09:56:57;;;;;;;0.40;0.40;;;21.70;92.10;;;21.91;75.06;94800.47;5054923;28;20236;-80
2022/06/25 09:59:28;;;;;;;0.40;0.40;;;21.70;92.10;;;21.93;76.07;94791.41;5052004;28;20653;-81
2022/06/25 10:01:55;;;;;;;0.40;0.40;;;21.70;92.30;;;21.96;75.69;94793.53;5041730;28;20650;-80
2022/06/25 10:04:23;;;;;;;0.30;0.30;;;21.70;92.50;;;22.00;75.99;94795.41;5038291;28;20204;-81
2022/06/25 10:06:53;;;;;;;0.43;0.43;;;21.80;92.50;;;22.00;75.93;94784.72;5069526;28;20212;-80
2022/06/25 10:09:25;;;;;;;0.35;0.35;;;21.80;92.30;;;22.10;76.18;94801.84;5070229;28;20215;-81
2022/06/25 10:11:52;;;;;;;0.30;0.30;;;21.80;92.50;;;22.13;75.94;94787.94;5052770;28;20384;-79
2022/06/25 10:14:20;;;;;;;0.30;0.30;;;21.90;92.50;;;22.14;75.77;94793.03;5025352;28;20200;-80
2022/06/25 10:16:47;;;;;;;0.30;0.30;;;21.90;92.40;;;22.20;75.75;94799.97;5058131;28;20219;-80
2022/06/25 10:19:18;;;;;;;0.30;0.30;;;22.00;92.30;;;22.20;75.03;94796.47;5053609;28;20614;-79
2022/06/25 10:21:47;;;;;;;0.40;0.40;;;22.00;91.80;;;22.11;73.09;94792.75;5046362;28;20213;-79
2022/06/25 10:24:15;;;;;;;0.40;0.40;;;22.00;91.50;;;22.12;74.54;94795.16;5021476;28;20197;-80
2022/06/25 10:26:43;;;;;;;0.40;0.40;;;22.00;91.80;;;22.17;75.57;94789.00;5051198;28;20195;-79
2022/06/25 10:29:53;;;;;;;0.30;0.30;;;22.00;92.10;;;22.23;75.77;94796.75;5017719;28;20201;-81
2022/06/25 10:32:20;;;;;;;0.40;0.40;;;22.10;92.30;;;22.31;75.65;94792.72;5023135;28;20224;-79
2022/06/25 10:35:01;;;;;;;0.30;0.30;;;22.10;92.40;;;22.41;76.06;94799.16;5069005;28;20230;-79
2022/06/25 10:38:02;;;;;;;0.30;0.30;;;22.20;92.30;;;22.44;75.85;94778.03;5048483;28;20232;-80
2022/06/25 10:40:32;;;;;;;0.60;0.60;;;22.20;92.60;;;22.59;76.16;94787.09;5069237;28;20689;-79
2022/06/25 10:43:42;;;;;;;0.30;0.30;;;22.30;92.40;;;22.61;75.45;94784.97;5054794;28;20223;-80
2022/06/25 10:46:33;;;;;;;0.32;0.32;;;22.40;92.00;;;22.65;75.27;94786.03;5034757;28;20563;-79